createdAt,value
2022-11-23T00:00:15.291Z,59.40
2022-11-23T00:01:15.276Z,59.61
2022-11-23T00:02:15.375Z,59.61
2022-11-23T00:03:15.244Z,59.61
2022-11-23T00:04:15.240Z,59.71
2022-11-23T00:05:15.226Z,59.81
2022-11-23T00:06:15.208Z,59.81
2022-11-23T00:07:15.233Z,59.71
2022-11-23T00:08:15.199Z,59.71
2022-11-23T00:09:15.156Z,59.71
2022-11-23T00:10:18.143Z,59.61
2022-11-23T00:11:18.184Z,59.61
2022-11-23T00:12:15.117Z,59.61
2022-11-23T00:13:15.172Z,59.50
2022-11-23T00:14:15.105Z,59.30
2022-11-23T00:15:15.081Z,59.19
2022-11-23T00:16:15.058Z,59.30
2022-11-23T00:17:15.085Z,59.19
2022-11-23T00:18:15.036Z,59.19
2022-11-23T00:19:15.048Z,58.88
2022-11-23T00:20:15.009Z,58.78
2022-11-23T00:21:14.998Z,58.54
2022-11-23T00:22:14.987Z,58.54
2022-11-23T00:23:14.997Z,58.54
2022-11-23T00:24:14.980Z,58.44
2022-11-23T00:25:14.995Z,58.33
2022-11-23T00:26:14.931Z,58.12
2022-11-23T00:27:14.919Z,58.02
2022-11-23T00:28:14.910Z,57.92
2022-11-23T00:29:14.952Z,58.02
2022-11-23T00:30:17.877Z,58.02
2022-11-23T00:31:17.888Z,58.12
2022-11-23T00:32:14.855Z,58.12
2022-11-23T00:33:14.841Z,58.12
2022-11-23T00:34:14.846Z,58.02
2022-11-23T00:35:14.842Z,58.23
2022-11-23T00:36:14.799Z,58.12
2022-11-23T00:37:14.819Z,58.23
2022-11-23T00:38:14.803Z,58.12
2022-11-23T00:39:14.912Z,58.23
2022-11-23T00:40:15.099Z,58.02
2022-11-23T00:41:15.049Z,58.02
2022-11-23T00:42:15.307Z,57.81
2022-11-23T00:43:14.703Z,57.81
2022-11-23T00:44:14.685Z,57.81
2022-11-23T00:45:14.686Z,57.58
2022-11-23T00:46:14.702Z,57.48
2022-11-23T00:47:14.651Z,56.85
2022-11-23T00:48:14.635Z,56.54
2022-11-23T00:49:14.641Z,56.24
2022-11-23T00:50:17.606Z,56.24
2022-11-23T00:51:17.664Z,56.10
2022-11-23T00:52:14.594Z,56.13
2022-11-23T00:53:14.567Z,55.59
2022-11-23T00:54:14.554Z,55.38
2022-11-23T00:55:14.544Z,55.38
2022-11-23T00:56:14.556Z,55.28
2022-11-23T00:57:14.536Z,54.76
2022-11-23T00:58:14.536Z,54.35
2022-11-23T00:59:14.491Z,54.03
2022-11-23T01:00:14.500Z,53.83
2022-11-23T01:01:14.477Z,53.72
2022-11-23T01:02:14.438Z,53.72
2022-11-23T01:03:14.435Z,53.62
2022-11-23T01:04:14.479Z,53.31
2022-11-23T01:05:14.407Z,53.31
2022-11-23T01:06:14.385Z,53.10
2022-11-23T01:07:14.416Z,52.69
2022-11-23T01:08:14.361Z,52.69
2022-11-23T01:09:14.351Z,52.48
2022-11-23T01:10:17.359Z,52.59
2022-11-23T01:11:17.340Z,52.28
2022-11-23T01:12:14.305Z,52.17
2022-11-23T01:13:14.291Z,52.07
2022-11-23T01:14:14.271Z,51.86
2022-11-23T01:15:14.287Z,51.65
2022-11-23T01:16:17.196Z,51.63
2022-11-23T01:17:15.243Z,51.63
2022-11-23T01:18:14.219Z,51.24
2022-11-23T01:19:14.207Z,50.90
2022-11-23T01:20:14.212Z,50.80
2022-11-23T01:21:14.172Z,50.60
2022-11-23T01:22:14.175Z,50.60
2022-11-23T01:23:14.151Z,50.60
2022-11-23T01:24:14.133Z,50.29
2022-11-23T01:25:14.150Z,50.29
2022-11-23T01:26:14.104Z,50.18
2022-11-23T01:27:14.094Z,50.08
2022-11-23T01:28:14.100Z,50.18
2022-11-23T01:29:14.062Z,49.98
2022-11-23T01:30:17.088Z,49.98
2022-11-23T01:31:17.053Z,49.87
2022-11-23T01:32:14.021Z,49.87
2022-11-23T01:33:14.011Z,49.77
2022-11-23T01:34:14.002Z,49.77
2022-11-23T01:35:14.032Z,49.66
2022-11-23T01:36:13.963Z,49.56
2022-11-23T01:37:13.954Z,49.56
2022-11-23T01:38:18.173Z,49.46
2022-11-23T01:39:13.925Z,49.35
2022-11-23T01:40:13.905Z,49.35
2022-11-23T01:41:13.966Z,49.25
2022-11-23T01:42:17.696Z,49.25
2022-11-23T01:43:13.877Z,49.25
2022-11-23T01:44:13.854Z,49.15
2022-11-23T01:45:13.846Z,49.25
2022-11-23T01:46:13.843Z,49.35
2022-11-23T01:47:13.866Z,49.25
2022-11-23T01:48:13.798Z,49.25
2022-11-23T01:49:13.814Z,48.94
2022-11-23T01:50:16.775Z,48.94
2022-11-23T01:51:16.775Z,48.73
2022-11-23T01:52:13.748Z,48.73
2022-11-23T01:53:13.771Z,48.63
2022-11-23T01:54:13.719Z,48.63
2022-11-23T01:55:13.706Z,48.53
2022-11-23T01:56:13.688Z,48.53
2022-11-23T01:57:13.685Z,48.63
2022-11-23T01:58:13.728Z,48.53
2022-11-23T01:59:13.659Z,48.53
2022-11-23T02:00:13.664Z,48.43
2022-11-23T02:01:13.638Z,48.22
2022-11-23T02:02:13.608Z,48.32
2022-11-23T02:03:13.598Z,48.22
2022-11-23T02:04:13.649Z,48.11
2022-11-23T02:05:13.569Z,48.11
2022-11-23T02:06:13.549Z,48.11
2022-11-23T02:07:13.605Z,48.32
2022-11-23T02:08:13.531Z,48.11
2022-11-23T02:09:13.521Z,48.11
2022-11-23T02:10:16.564Z,48.11
2022-11-23T02:11:16.521Z,48.19
2022-11-23T02:12:13.479Z,48.09
2022-11-23T02:13:13.470Z,48.11
2022-11-23T02:14:13.452Z,48.01
2022-11-23T02:15:13.481Z,47.88
2022-11-23T02:16:13.429Z,48.09
2022-11-23T02:17:13.414Z,47.99
2022-11-23T02:18:13.401Z,48.09
2022-11-23T02:19:13.383Z,48.19
2022-11-23T02:20:13.373Z,48.19
2022-11-23T02:21:13.414Z,48.30
2022-11-23T02:22:13.344Z,48.30
2022-11-23T02:23:13.348Z,48.30
2022-11-23T02:24:13.322Z,48.40
2022-11-23T02:25:13.313Z,48.53
2022-11-23T02:26:13.294Z,48.43
2022-11-23T02:27:13.299Z,48.40
2022-11-23T02:28:13.317Z,48.50
2022-11-23T02:29:13.348Z,48.40
2022-11-23T02:30:16.234Z,48.61
2022-11-23T02:31:16.242Z,48.50
2022-11-23T02:32:13.204Z,48.50
2022-11-23T02:33:13.189Z,48.61
2022-11-23T02:34:13.224Z,48.61
2022-11-23T02:35:13.164Z,48.82
2022-11-23T02:36:13.155Z,48.71
2022-11-23T02:37:13.137Z,48.71
2022-11-23T02:38:13.124Z,48.61
2022-11-23T02:39:13.111Z,48.71
2022-11-23T02:40:13.137Z,48.71
2022-11-23T02:41:13.094Z,48.71
2022-11-23T02:42:13.066Z,48.82
2022-11-23T02:43:13.055Z,48.92
2022-11-23T02:44:13.044Z,48.71
2022-11-23T02:45:13.030Z,48.82
2022-11-23T02:46:13.036Z,48.71
2022-11-23T02:47:13.060Z,48.71
2022-11-23T02:48:12.987Z,48.82
2022-11-23T02:49:12.989Z,48.71
2022-11-23T02:50:15.958Z,48.82
2022-11-23T02:51:16.004Z,48.82
2022-11-23T02:52:12.929Z,48.92
2022-11-23T02:53:12.919Z,48.92
2022-11-23T02:54:12.915Z,48.92
2022-11-23T02:55:12.887Z,48.92
2022-11-23T02:56:12.899Z,48.92
2022-11-23T02:57:12.863Z,48.92
2022-11-23T02:58:12.846Z,48.92
2022-11-23T02:59:12.831Z,48.92
2022-11-23T03:00:12.822Z,48.92
2022-11-23T03:01:12.869Z,49.13
2022-11-23T03:02:12.796Z,49.22
2022-11-23T03:03:12.823Z,49.43
2022-11-23T03:04:12.761Z,49.33
2022-11-23T03:05:12.741Z,49.22
2022-11-23T03:06:12.732Z,49.22
2022-11-23T03:07:12.825Z,49.22
2022-11-23T03:08:12.702Z,49.33
2022-11-23T03:09:12.694Z,49.54
2022-11-23T03:10:15.684Z,49.33
2022-11-23T03:11:15.675Z,49.22
2022-11-23T03:12:12.667Z,49.22
2022-11-23T03:13:12.677Z,49.33
2022-11-23T03:14:12.624Z,49.54
2022-11-23T03:15:12.610Z,49.22
2022-11-23T03:16:12.594Z,49.22
2022-11-23T03:17:12.600Z,49.02
2022-11-23T03:18:12.570Z,48.82
2022-11-23T03:19:12.575Z,48.71
2022-11-23T03:20:12.548Z,48.61
2022-11-23T03:21:12.553Z,48.50
2022-11-23T03:22:12.514Z,48.38
2022-11-23T03:23:12.495Z,48.50
2022-11-23T03:24:12.485Z,48.19
2022-11-23T03:25:12.502Z,48.19
2022-11-23T03:26:13.346Z,48.09
2022-11-23T03:27:12.436Z,48.09
2022-11-23T03:28:12.428Z,47.88
2022-11-23T03:29:12.417Z,47.88
2022-11-23T03:30:15.437Z,47.67
2022-11-23T03:31:15.463Z,47.66
2022-11-23T03:32:12.376Z,47.34
2022-11-23T03:33:12.357Z,47.24
2022-11-23T03:34:12.346Z,47.24
2022-11-23T03:35:12.330Z,47.03
2022-11-23T03:36:12.332Z,46.95
2022-11-23T03:37:12.330Z,46.72
2022-11-23T03:38:12.288Z,46.62
2022-11-23T03:39:12.268Z,46.62
2022-11-23T03:40:12.260Z,46.41
2022-11-23T03:41:12.301Z,46.41
2022-11-23T03:42:12.239Z,46.33
2022-11-23T03:43:12.229Z,46.21
2022-11-23T03:44:12.208Z,46.11
2022-11-23T03:45:12.205Z,46.11
2022-11-23T03:46:12.179Z,46.00
2022-11-23T03:47:12.193Z,45.69
2022-11-23T03:48:12.155Z,45.17
2022-11-23T03:49:12.146Z,45.28
2022-11-23T03:50:15.122Z,45.17
2022-11-23T03:51:15.122Z,45.07
2022-11-23T03:52:12.127Z,45.07
2022-11-23T03:53:12.122Z,44.86
2022-11-23T03:54:12.080Z,44.86
2022-11-23T03:55:12.061Z,44.76
2022-11-23T03:56:12.044Z,44.86
2022-11-23T03:57:12.031Z,44.76
2022-11-23T03:58:12.021Z,44.66
2022-11-23T03:59:12.045Z,44.66
2022-11-23T04:00:11.991Z,44.66
2022-11-23T04:01:12.025Z,44.56
2022-11-23T04:02:11.964Z,44.35
2022-11-23T04:03:11.971Z,44.35
2022-11-23T04:04:11.941Z,44.45
2022-11-23T04:05:11.923Z,44.35
2022-11-23T04:06:11.906Z,44.35
2022-11-23T04:07:11.951Z,44.45
2022-11-23T04:08:11.904Z,44.14
2022-11-23T04:09:11.926Z,44.14
2022-11-23T04:10:14.856Z,44.14
2022-11-23T04:11:14.885Z,44.24
2022-11-23T04:12:11.825Z,44.24
2022-11-23T04:13:11.805Z,44.04
2022-11-23T04:14:11.824Z,44.04
2022-11-23T04:15:11.813Z,43.93
2022-11-23T04:16:11.774Z,43.93
2022-11-23T04:17:11.756Z,43.93
2022-11-23T04:18:11.756Z,43.93
2022-11-23T04:19:11.775Z,43.83
2022-11-23T04:20:11.725Z,43.73
2022-11-23T04:21:11.698Z,43.73
2022-11-23T04:22:11.699Z,43.73
2022-11-23T04:23:13.487Z,43.73
2022-11-23T04:24:11.690Z,43.52
2022-11-23T04:25:11.649Z,43.62
2022-11-23T04:26:11.648Z,43.60
2022-11-23T04:27:11.637Z,43.60
2022-11-23T04:28:11.609Z,43.50
2022-11-23T04:29:11.631Z,43.50
2022-11-23T04:30:14.586Z,43.50
2022-11-23T04:31:14.579Z,43.40
2022-11-23T04:32:11.589Z,43.29
2022-11-23T04:33:11.540Z,43.29
2022-11-23T04:34:11.536Z,43.29
2022-11-23T04:35:11.539Z,43.29
2022-11-23T04:36:11.546Z,42.98
2022-11-23T04:37:13.445Z,43.19
2022-11-23T04:38:11.479Z,42.98
2022-11-23T04:39:11.489Z,42.98
2022-11-23T04:40:11.452Z,42.98
2022-11-23T04:41:11.443Z,42.77
2022-11-23T04:42:11.420Z,42.98
2022-11-23T04:43:11.411Z,42.98
2022-11-23T04:44:11.422Z,42.77
2022-11-23T04:45:11.379Z,42.77
2022-11-23T04:46:11.394Z,42.57
2022-11-23T04:47:11.364Z,42.47
2022-11-23T04:48:11.345Z,42.47
2022-11-23T04:49:11.330Z,42.47
2022-11-23T04:50:14.318Z,42.47
2022-11-23T04:51:14.386Z,42.57
2022-11-23T04:52:11.292Z,42.47
2022-11-23T04:53:11.292Z,42.57
2022-11-23T04:54:11.261Z,42.36
2022-11-23T04:55:11.243Z,42.36
2022-11-23T04:56:11.237Z,42.26
2022-11-23T04:57:11.262Z,42.16
2022-11-23T04:58:11.236Z,42.16
2022-11-23T04:59:11.199Z,42.16
2022-11-23T05:00:11.177Z,42.05
2022-11-23T05:01:11.223Z,42.05
2022-11-23T05:02:11.156Z,42.05
2022-11-23T05:03:11.164Z,42.05
2022-11-23T05:04:16.271Z,42.05
2022-11-23T05:05:12.107Z,42.05
2022-11-23T05:06:11.101Z,42.05
2022-11-23T05:07:11.149Z,42.16
2022-11-23T05:08:11.095Z,41.95
2022-11-23T05:09:11.058Z,41.95
2022-11-23T05:10:14.057Z,41.95
2022-11-23T05:11:14.045Z,41.85
2022-11-23T05:12:11.015Z,41.85
2022-11-23T05:13:11.026Z,41.85
2022-11-23T05:14:10.988Z,41.72
2022-11-23T05:15:10.973Z,41.74
2022-11-23T05:16:10.961Z,41.74
2022-11-23T05:17:10.944Z,41.72
2022-11-23T05:18:10.976Z,41.64
2022-11-23T05:19:10.944Z,41.52
2022-11-23T05:20:10.909Z,41.64
2022-11-23T05:21:10.895Z,41.62
2022-11-23T05:22:10.882Z,41.62
2022-11-23T05:23:10.864Z,41.52
2022-11-23T05:24:10.881Z,41.31
2022-11-23T05:25:10.880Z,41.52
2022-11-23T05:26:10.848Z,41.41
2022-11-23T05:27:10.816Z,41.41
2022-11-23T05:28:30.545Z,41.31
2022-11-23T05:29:11.782Z,41.20
2022-11-23T05:30:13.809Z,41.20
2022-11-23T05:31:13.791Z,41.31
2022-11-23T05:32:10.741Z,41.41
2022-11-23T05:33:10.738Z,41.31
2022-11-23T05:34:10.718Z,41.31
2022-11-23T05:35:10.742Z,41.31
2022-11-23T05:36:10.701Z,41.31
2022-11-23T05:37:10.677Z,41.31
2022-11-23T05:38:10.663Z,41.31
2022-11-23T05:39:10.643Z,41.41
2022-11-23T05:40:10.655Z,41.20
2022-11-23T05:41:10.676Z,41.41
2022-11-23T05:42:10.613Z,41.20
2022-11-23T05:43:10.591Z,41.20
2022-11-23T05:44:10.582Z,41.31
2022-11-23T05:45:11.865Z,41.31
2022-11-23T05:46:10.556Z,41.31
2022-11-23T05:47:10.574Z,41.20
2022-11-23T05:48:10.527Z,41.20
2022-11-23T05:49:10.514Z,41.20
2022-11-23T05:50:13.494Z,41.31
2022-11-23T05:51:13.496Z,41.20
2022-11-23T05:52:10.474Z,41.31
2022-11-23T05:53:10.485Z,41.31
2022-11-23T05:54:10.485Z,41.20
2022-11-23T05:55:10.426Z,41.41
2022-11-23T05:56:10.428Z,41.20
2022-11-23T05:57:10.404Z,41.20
2022-11-23T05:58:10.386Z,41.31
2022-11-23T05:59:10.378Z,41.20
2022-11-23T06:00:10.406Z,41.10
2022-11-23T06:01:10.358Z,41.20
2022-11-23T06:02:10.340Z,41.20
2022-11-23T06:03:10.318Z,41.20
2022-11-23T06:04:10.378Z,41.10
2022-11-23T06:05:10.297Z,41.20
2022-11-23T06:06:10.310Z,41.10
2022-11-23T06:07:10.345Z,41.20
2022-11-23T06:08:10.265Z,41.10
2022-11-23T06:09:10.267Z,41.20
2022-11-23T06:10:13.295Z,41.20
2022-11-23T06:11:13.221Z,41.10
2022-11-23T06:12:10.208Z,41.00
2022-11-23T06:13:10.185Z,41.10
2022-11-23T06:14:14.214Z,41.10
2022-11-23T06:15:10.164Z,41.10
2022-11-23T06:16:10.181Z,41.10
2022-11-23T06:17:10.129Z,41.10
2022-11-23T06:18:10.147Z,41.00
2022-11-23T06:19:10.121Z,41.00
2022-11-23T06:20:10.151Z,41.00
2022-11-23T06:21:10.089Z,41.20
2022-11-23T06:22:10.069Z,41.00
2022-11-23T06:23:10.052Z,40.90
2022-11-23T06:24:10.051Z,41.00
2022-11-23T06:25:10.027Z,41.00
2022-11-23T06:26:10.064Z,41.00
2022-11-23T06:27:14.006Z,40.90
2022-11-23T06:28:10.993Z,40.90
2022-11-23T06:29:09.982Z,40.80
2022-11-23T06:30:12.960Z,40.80
2022-11-23T06:31:13.015Z,40.78
2022-11-23T06:32:09.939Z,40.80
2022-11-23T06:33:09.922Z,40.90
2022-11-23T06:34:09.904Z,40.90
2022-11-23T06:35:09.896Z,40.90
2022-11-23T06:36:09.883Z,40.90
2022-11-23T06:37:09.906Z,40.90
2022-11-23T06:38:09.857Z,40.90
2022-11-23T06:39:09.845Z,40.90
2022-11-23T06:40:09.824Z,41.00
2022-11-23T06:41:09.820Z,40.90
2022-11-23T06:42:37.678Z,40.90
2022-11-23T06:43:10.827Z,41.00
2022-11-23T06:44:09.777Z,40.90
2022-11-23T06:45:09.764Z,40.80
2022-11-23T06:46:09.745Z,40.90
2022-11-23T06:47:15.353Z,40.80
2022-11-23T06:48:10.717Z,41.00
2022-11-23T06:49:09.894Z,40.90
2022-11-23T06:50:12.690Z,40.90
2022-11-23T06:51:12.697Z,40.90
2022-11-23T06:52:09.671Z,40.80
2022-11-23T06:53:09.659Z,40.80
2022-11-23T06:54:09.639Z,40.80
2022-11-23T06:55:09.693Z,40.80
2022-11-23T06:56:09.626Z,40.80
2022-11-23T06:57:09.600Z,40.80
2022-11-23T06:58:09.586Z,40.80
2022-11-23T06:59:09.578Z,40.80
2022-11-23T07:00:09.559Z,40.80
2022-11-23T07:01:09.661Z,40.90
2022-11-23T07:02:09.543Z,40.80
2022-11-23T07:03:09.563Z,40.90
2022-11-23T07:04:09.510Z,41.00
2022-11-23T07:05:09.499Z,41.00
2022-11-23T07:06:09.504Z,41.10
2022-11-23T07:07:09.565Z,41.10
2022-11-23T07:08:09.452Z,41.10
2022-11-23T07:09:09.442Z,41.10
2022-11-23T07:10:12.444Z,41.00
2022-11-23T07:11:12.440Z,41.10
2022-11-23T07:12:09.398Z,41.00
2022-11-23T07:13:09.428Z,41.10
2022-11-23T07:14:09.373Z,40.90
2022-11-23T07:15:09.376Z,41.10
2022-11-23T07:16:09.345Z,41.10
2022-11-23T07:17:12.654Z,41.00
2022-11-23T07:18:10.366Z,41.00
2022-11-23T07:19:09.344Z,41.10
2022-11-23T07:20:09.293Z,41.10
2022-11-23T07:21:09.282Z,41.10
2022-11-23T07:22:09.264Z,41.10
2022-11-23T07:23:09.256Z,41.10
2022-11-23T07:24:09.296Z,41.10
2022-11-23T07:25:09.234Z,41.10
2022-11-23T07:26:09.212Z,41.10
2022-11-23T07:27:09.205Z,41.10
2022-11-23T07:28:09.184Z,41.10
2022-11-23T07:29:09.182Z,41.10
2022-11-23T07:30:12.196Z,41.10
2022-11-23T07:31:12.180Z,41.10
2022-11-23T07:32:09.138Z,41.10
2022-11-23T07:33:09.123Z,41.20
2022-11-23T07:34:09.119Z,41.31
2022-11-23T07:35:09.110Z,41.10
2022-11-23T07:36:09.106Z,41.10
2022-11-23T07:37:09.066Z,41.10
2022-11-23T07:38:09.106Z,41.10
2022-11-23T07:39:09.037Z,41.10
2022-11-23T07:40:09.027Z,41.20
2022-11-23T07:41:09.010Z,41.20
2022-11-23T07:42:31.747Z,41.20
2022-11-23T07:43:10.011Z,41.31
2022-11-23T07:44:08.967Z,41.10
2022-11-23T07:45:09.037Z,41.10
2022-11-23T07:46:08.986Z,41.10
2022-11-23T07:47:08.929Z,41.10
2022-11-23T07:48:08.929Z,41.20
2022-11-23T07:49:08.906Z,41.08
2022-11-23T07:50:11.920Z,41.08
2022-11-23T07:51:11.886Z,41.08
2022-11-23T07:52:08.867Z,41.19
2022-11-23T07:53:08.869Z,41.19
2022-11-23T07:54:08.899Z,41.19
2022-11-23T07:55:08.821Z,41.08
2022-11-23T07:56:08.835Z,41.08
2022-11-23T07:57:08.800Z,41.08
2022-11-23T07:58:08.802Z,41.08
2022-11-23T07:59:08.769Z,41.08
2022-11-23T08:00:08.813Z,40.98
2022-11-23T08:01:08.742Z,40.98
2022-11-23T08:02:08.792Z,41.08
2022-11-23T08:04:09.702Z,41.08
2022-11-23T08:05:13.862Z,41.08
2022-11-23T08:06:09.704Z,41.08
2022-11-23T08:07:08.755Z,41.08
2022-11-23T08:08:08.644Z,41.08
2022-11-23T08:09:08.647Z,41.08
2022-11-23T08:10:11.616Z,41.19
2022-11-23T08:11:11.623Z,41.29
2022-11-23T08:12:08.588Z,41.29
2022-11-23T08:13:08.608Z,41.19
2022-11-23T08:14:08.587Z,41.08
2022-11-23T08:15:08.567Z,41.19
2022-11-23T08:16:08.555Z,41.08
2022-11-23T08:17:08.527Z,41.06
2022-11-23T08:18:08.563Z,41.17
2022-11-23T08:19:08.561Z,41.17
2022-11-23T08:20:08.489Z,41.17
2022-11-23T08:21:08.480Z,41.27
2022-11-23T08:22:08.459Z,41.17
2022-11-23T08:23:08.446Z,41.17
2022-11-23T08:24:08.430Z,41.27
2022-11-23T08:25:08.451Z,41.27
2022-11-23T08:26:13.463Z,41.38
2022-11-23T08:27:09.399Z,41.58
2022-11-23T08:28:08.390Z,41.89
2022-11-23T08:29:08.404Z,41.89
2022-11-23T08:30:11.373Z,42.20
2022-11-23T08:31:11.372Z,42.20
2022-11-23T08:32:08.329Z,42.30
2022-11-23T08:33:08.314Z,42.41
2022-11-23T08:34:08.297Z,42.41
2022-11-23T08:35:08.361Z,42.39
2022-11-23T08:36:08.262Z,42.39
2022-11-23T08:37:08.271Z,42.39
2022-11-23T08:38:08.241Z,42.39
2022-11-23T08:39:08.253Z,42.39
2022-11-23T08:40:08.212Z,42.60
2022-11-23T08:41:08.409Z,42.69
2022-11-23T08:42:08.183Z,42.57
2022-11-23T08:43:08.182Z,42.78
2022-11-23T08:44:08.167Z,43.09
2022-11-23T08:45:08.152Z,43.09
2022-11-23T08:46:11.201Z,43.19
2022-11-23T08:47:08.155Z,43.30
2022-11-23T08:48:08.154Z,43.50
2022-11-23T08:49:08.146Z,43.40
2022-11-23T08:50:11.084Z,43.71
2022-11-23T08:51:11.087Z,43.91
2022-11-23T08:52:08.055Z,44.43
2022-11-23T08:53:08.050Z,44.53
2022-11-23T08:54:08.075Z,44.64
2022-11-23T08:55:08.014Z,44.84
2022-11-23T08:56:07.996Z,44.84
2022-11-23T08:57:07.996Z,44.84
2022-11-23T08:58:13.135Z,45.05
2022-11-23T08:59:08.986Z,44.95
2022-11-23T09:00:08.177Z,45.05
2022-11-23T09:01:08.018Z,45.25
2022-11-23T09:02:07.919Z,45.15
2022-11-23T09:03:07.914Z,45.15
2022-11-23T09:04:07.928Z,45.36
2022-11-23T09:05:07.877Z,45.36
2022-11-23T09:06:07.884Z,45.25
2022-11-23T09:07:07.921Z,45.46
2022-11-23T09:08:07.841Z,45.36
2022-11-23T09:09:07.834Z,45.46
2022-11-23T09:10:16.549Z,45.36
2022-11-23T09:11:11.824Z,45.36
2022-11-23T09:12:07.801Z,45.36
2022-11-23T09:13:07.770Z,45.46
2022-11-23T09:14:07.761Z,45.46
2022-11-23T09:15:07.807Z,45.36
2022-11-23T09:16:07.731Z,45.67
2022-11-23T09:17:07.721Z,45.46
2022-11-23T09:18:07.699Z,45.36
2022-11-23T09:19:07.691Z,45.25
2022-11-23T09:20:07.681Z,45.05
2022-11-23T09:21:07.696Z,45.25
2022-11-23T09:22:07.652Z,44.84
2022-11-23T09:23:13.558Z,44.64
2022-11-23T09:24:08.670Z,44.53
2022-11-23T09:25:07.690Z,44.53
2022-11-23T09:26:07.619Z,44.32
2022-11-23T09:27:07.583Z,44.23
2022-11-23T09:28:07.574Z,44.32
2022-11-23T09:29:07.573Z,44.23
2022-11-23T09:30:10.578Z,44.20
2022-11-23T09:31:10.544Z,43.90
2022-11-23T09:32:07.513Z,43.90
2022-11-23T09:33:07.505Z,43.90
2022-11-23T09:34:07.533Z,43.79
2022-11-23T09:35:07.478Z,43.69
2022-11-23T09:36:07.465Z,43.69
2022-11-23T09:37:07.454Z,43.59
2022-11-23T09:38:07.436Z,43.59
2022-11-23T09:39:07.425Z,43.59
2022-11-23T09:40:07.466Z,43.59
2022-11-23T09:41:07.397Z,43.69
2022-11-23T09:42:07.382Z,43.59
2022-11-23T09:43:07.429Z,43.36
2022-11-23T09:44:07.356Z,43.46
2022-11-23T09:45:07.345Z,43.57
2022-11-23T09:46:07.380Z,43.46
2022-11-23T09:47:07.316Z,43.57
2022-11-23T09:48:07.299Z,43.57
2022-11-23T09:49:07.293Z,43.57
2022-11-23T09:50:10.278Z,43.57
2022-11-23T09:51:10.328Z,43.67
2022-11-23T09:52:07.247Z,43.67
2022-11-23T09:53:07.234Z,43.87
2022-11-23T09:54:07.219Z,44.49
2022-11-23T09:55:07.209Z,44.49
2022-11-23T09:56:07.219Z,44.49
2022-11-23T09:57:07.183Z,45.01
2022-11-23T09:58:07.161Z,45.11
2022-11-23T09:59:07.151Z,44.90
2022-11-23T10:00:07.139Z,45.01
2022-11-23T10:01:07.385Z,45.01
2022-11-23T10:02:07.139Z,45.11
2022-11-23T10:03:07.155Z,44.80
2022-11-23T10:04:07.084Z,44.70
2022-11-23T10:05:07.072Z,44.80
2022-11-23T10:06:07.073Z,45.01
2022-11-23T10:07:07.115Z,45.01
2022-11-23T10:08:07.039Z,45.01
2022-11-23T10:09:07.050Z,44.70
2022-11-23T10:10:10.023Z,44.70
2022-11-23T10:11:10.032Z,44.49
2022-11-23T10:12:06.994Z,44.17
2022-11-23T10:13:06.974Z,44.17
2022-11-23T10:14:06.954Z,43.96
2022-11-23T10:15:06.973Z,44.06
2022-11-23T10:16:06.922Z,43.96
2022-11-23T10:17:06.919Z,43.85
2022-11-23T10:18:06.893Z,43.85
2022-11-23T10:19:06.885Z,43.85
2022-11-23T10:20:06.875Z,43.84
2022-11-23T10:21:06.905Z,43.73
2022-11-23T10:22:06.857Z,43.84
2022-11-23T10:23:06.825Z,43.84
2022-11-23T10:24:06.816Z,43.73
2022-11-23T10:25:06.837Z,43.84
2022-11-23T10:26:06.787Z,44.14
2022-11-23T10:27:06.806Z,44.45
2022-11-23T10:28:06.766Z,44.86
2022-11-23T10:29:06.800Z,44.35
2022-11-23T10:30:09.768Z,44.35
2022-11-23T10:31:09.756Z,44.76
2022-11-23T10:32:06.706Z,45.17
2022-11-23T10:33:06.708Z,44.76
2022-11-23T10:34:06.682Z,44.76
2022-11-23T10:35:06.667Z,44.65
2022-11-23T10:36:06.688Z,44.64
2022-11-23T10:37:06.673Z,44.74
2022-11-23T10:38:06.636Z,44.74
2022-11-23T10:39:06.622Z,44.64
2022-11-23T10:40:06.647Z,44.64
2022-11-23T10:41:06.619Z,44.53
2022-11-23T10:42:06.602Z,44.43
2022-11-23T10:43:06.553Z,44.62
2022-11-23T10:44:06.542Z,44.31
2022-11-23T10:45:06.532Z,44.41
2022-11-23T10:46:06.542Z,44.92
2022-11-23T10:47:06.536Z,44.82
2022-11-23T10:48:06.496Z,45.43
2022-11-23T10:49:06.493Z,45.43
2022-11-23T10:50:09.466Z,45.85
2022-11-23T10:51:09.467Z,45.93
2022-11-23T10:52:06.465Z,46.14
2022-11-23T10:53:06.423Z,47.06
2022-11-23T10:54:06.498Z,47.49
2022-11-23T10:55:06.396Z,47.88
2022-11-23T10:56:06.381Z,47.78
2022-11-23T10:57:06.463Z,47.67
2022-11-23T10:58:06.360Z,48.09
2022-11-23T10:59:06.358Z,49.11
2022-11-23T11:00:06.327Z,49.63
2022-11-23T11:01:06.307Z,50.24
2022-11-23T11:02:06.349Z,51.17
2022-11-23T11:03:06.326Z,51.37
2022-11-23T11:04:06.449Z,51.48
2022-11-23T11:05:06.262Z,51.68
2022-11-23T11:06:09.216Z,51.68
2022-11-23T11:07:06.260Z,52.09
2022-11-23T11:08:06.232Z,52.40
2022-11-23T11:09:10.864Z,52.20
2022-11-23T11:10:10.207Z,52.69
2022-11-23T11:11:09.192Z,53.00
2022-11-23T11:12:06.160Z,54.77
2022-11-23T11:13:06.147Z,55.18
2022-11-23T11:14:06.160Z,55.18
2022-11-23T11:15:11.414Z,55.49
2022-11-23T11:16:07.115Z,55.28
2022-11-23T11:17:06.088Z,55.59
2022-11-23T11:18:06.093Z,56.51
2022-11-23T11:19:06.092Z,57.03
2022-11-23T11:20:06.053Z,57.34
2022-11-23T11:21:06.033Z,57.64
2022-11-23T11:22:06.032Z,57.34
2022-11-23T11:23:06.027Z,57.00
2022-11-23T11:24:06.093Z,57.31
2022-11-23T11:25:05.984Z,56.90
2022-11-23T11:26:05.973Z,56.59
2022-11-23T11:27:05.965Z,57.62
2022-11-23T11:28:05.943Z,58.34
2022-11-23T11:29:05.956Z,58.54
2022-11-23T11:30:08.924Z,58.85
2022-11-23T11:31:08.912Z,59.06
2022-11-23T11:32:05.894Z,60.39
2022-11-23T11:33:05.879Z,60.70
2022-11-23T11:34:05.925Z,60.49
2022-11-23T11:35:05.861Z,61.00
2022-11-23T11:36:05.840Z,61.49
2022-11-23T11:37:05.834Z,60.98
2022-11-23T11:38:05.808Z,60.88
2022-11-23T11:39:18.327Z,60.77
2022-11-23T11:40:06.806Z,61.08
2022-11-23T11:41:05.788Z,61.39
2022-11-23T11:42:05.747Z,62.73
2022-11-23T11:43:05.764Z,62.62
2022-11-23T11:44:05.726Z,63.44
2022-11-23T11:45:05.738Z,63.13
2022-11-23T11:46:28.114Z,63.13
2022-11-23T11:47:06.688Z,64.16
2022-11-23T11:48:05.670Z,63.85
2022-11-23T11:49:05.656Z,64.16
2022-11-23T11:50:08.698Z,63.75
2022-11-23T11:51:08.647Z,63.54
2022-11-23T11:52:05.633Z,63.54
2022-11-23T11:53:05.638Z,63.24
2022-11-23T11:54:05.588Z,63.24
2022-11-23T11:55:05.583Z,63.24
2022-11-23T11:56:05.625Z,63.44
2022-11-23T11:57:05.582Z,63.82
2022-11-23T11:58:05.539Z,63.72
2022-11-23T11:59:05.566Z,63.31
2022-11-23T12:00:05.509Z,63.21
2022-11-23T12:01:05.493Z,63.51
2022-11-23T12:02:05.473Z,64.13
2022-11-23T12:03:05.531Z,63.72
2022-11-23T12:04:05.455Z,63.49
2022-11-23T12:05:05.546Z,63.18
2022-11-23T12:06:05.435Z,63.39
2022-11-23T12:07:05.445Z,64.92
2022-11-23T12:08:05.433Z,65.64
2022-11-23T12:09:05.395Z,65.95
2022-11-23T12:10:08.425Z,65.84
2022-11-23T12:11:08.388Z,66.16
2022-11-23T12:12:05.352Z,66.80
2022-11-23T12:13:05.343Z,67.11
2022-11-23T12:14:05.315Z,66.60
2022-11-23T12:15:20.462Z,66.49
2022-11-23T12:16:06.321Z,66.49
2022-11-23T12:17:31.547Z,65.98
2022-11-23T12:18:06.288Z,66.28
2022-11-23T12:19:05.244Z,66.19
2022-11-23T12:20:05.226Z,65.57
2022-11-23T12:21:05.407Z,65.67
2022-11-23T12:22:05.253Z,65.36
2022-11-23T12:23:05.187Z,66.83
2022-11-23T12:24:05.177Z,66.31
2022-11-23T12:25:05.163Z,65.80
2022-11-23T12:26:05.148Z,64.88
2022-11-23T12:27:05.208Z,64.57
2022-11-23T12:28:05.130Z,64.37
2022-11-23T12:29:05.111Z,64.37
2022-11-23T12:30:08.099Z,64.37
2022-11-23T12:31:08.103Z,64.16
2022-11-23T12:32:05.088Z,63.85
2022-11-23T12:33:05.082Z,63.96
2022-11-23T12:34:05.051Z,63.85
2022-11-23T12:35:05.055Z,63.54
2022-11-23T12:36:05.017Z,63.34
2022-11-23T12:37:05.002Z,63.54
2022-11-23T12:38:04.992Z,63.96
2022-11-23T12:39:04.973Z,64.54
2022-11-23T12:40:04.994Z,64.54
2022-11-23T12:41:04.951Z,64.44
2022-11-23T12:42:04.962Z,64.34
2022-11-23T12:43:04.919Z,64.54
2022-11-23T12:44:04.914Z,65.36
2022-11-23T12:45:04.933Z,65.67
2022-11-23T12:46:04.913Z,65.47
2022-11-23T12:47:04.950Z,64.85
2022-11-23T12:48:04.855Z,65.47
2022-11-23T12:49:04.844Z,65.88
2022-11-23T12:50:07.824Z,65.77
2022-11-23T12:51:07.825Z,65.47
2022-11-23T12:52:04.805Z,65.57
2022-11-23T12:53:04.845Z,65.77